Time;durP1;ratioP1;P1;durP2;ratioP2;P2;SDS_P1;SDS_P2;PMS_P1;PMS_P2;Temp;Humidity;BMP_temperature;BMP_pressure;BME280_temperature;BME280_humidity;BME280_pressure;Samples;Min_cycle;Max_cycle;Signal;HPM_P1;HPM_P2
2022/10/10 00:02:24;;;;;;;7.45;2.55;;;;;;;;;;3387605;42;20551;-61
2022/10/10 00:04:55;;;;;;;7.33;2.30;;;;;;;;;;3385278;42;20154;-65
2022/10/10 00:07:26;;;;;;;5.75;2.58;;;;;;;;;;3388459;42;20142;-63
2022/10/10 00:09:58;;;;;;;7.35;2.75;;;;;;;;;;3374152;42;20093;-63
2022/10/10 00:12:29;;;;;;;6.22;2.30;;;;;;;;;;3383468;42;20137;-61
2022/10/10 00:15:00;;;;;;;7.45;2.50;;;;;;;;;;3383154;42;20089;-61
2022/10/10 00:17:31;;;;;;;5.80;2.20;;;;;;;;;;3381695;42;20112;-62
2022/10/10 00:20:03;;;;;;;5.88;2.28;;;;;;;;;;3387440;42;20647;-63
2022/10/10 00:22:34;;;;;;;6.10;2.35;;;;;;;;;;3382909;42;20086;-61
2022/10/10 00:25:06;;;;;;;11.27;2.72;;;;;;;;;;3381709;42;20169;-61
2022/10/10 00:27:37;;;;;;;6.28;2.38;;;;;;;;;;3382848;42;20525;-60
2022/10/10 00:30:08;;;;;;;7.50;2.40;;;;;;;;;;3383863;42;20093;-63
2022/10/10 00:32:40;;;;;;;6.20;2.45;;;;;;;;;;3383862;42;20541;-59
2022/10/10 00:35:11;;;;;;;6.53;2.45;;;;;;;;;;3386797;42;20192;-64
2022/10/10 00:37:42;;;;;;;5.65;2.15;;;;;;;;;;3383403;42;20103;-61
2022/10/10 00:40:14;;;;;;;5.75;2.30;;;;;;;;;;3384907;42;20107;-63
2022/10/10 00:42:45;;;;;;;9.10;2.60;;;;;;;;;;3380101;42;20098;-64
2022/10/10 00:45:25;;;;;;;7.32;2.38;;;;;;;;;;3389067;42;20125;-63
2022/10/10 00:48:12;;;;;;;6.38;2.50;;;;;;;;;;3383012;42;20142;-62
2022/10/10 00:50:46;;;;;;;7.75;2.50;;;;;;;;;;3367900;42;20086;-64
2022/10/10 00:53:20;;;;;;;6.53;2.60;;;;;;;;;;3383153;42;20146;-62
2022/10/10 00:55:51;;;;;;;8.73;2.83;;;;;;;;;;3383260;42;20091;-65
2022/10/10 00:58:23;;;;;;;6.80;2.50;;;;;;;;;;3386992;42;20569;-62
2022/10/10 01:00:54;;;;;;;5.85;2.20;;;;;;;;;;3377727;42;20540;-63
2022/10/10 01:03:25;;;;;;;6.60;2.35;;;;;;;;;;3383113;42;20561;-61
2022/10/10 01:05:56;;;;;;;6.13;2.60;;;;;;;;;;3387257;42;20507;-60
2022/10/10 01:08:27;;;;;;;6.93;2.50;;;;;;;;;;3376482;42;20082;-60
2022/10/10 01:11:37;;;;;;;6.05;2.30;;;;;;;;;;3379684;42;20095;-63
2022/10/10 01:14:17;;;;;;;5.85;2.38;;;;;;;;;;3377081;42;20083;-61
2022/10/10 01:17:04;;;;;;;9.13;2.90;;;;;;;;;;3383100;42;20595;-63
2022/10/10 01:20:01;;;;;;;7.25;2.30;;;;;;;;;;3381530;42;20200;-61
2022/10/10 01:22:38;;;;;;;6.10;2.23;;;;;;;;;;3380838;42;20138;-61
2022/10/10 01:25:13;;;;;;;5.72;2.28;;;;;;;;;;3380692;42;20095;-64
2022/10/10 01:27:46;;;;;;;5.80;2.40;;;;;;;;;;3384318;42;20553;-62
2022/10/10 01:30:21;;;;;;;6.32;2.40;;;;;;;;;;3383177;42;20098;-61
2022/10/10 01:33:05;;;;;;;7.20;2.20;;;;;;;;;;3386601;42;20086;-64
2022/10/10 01:35:57;;;;;;;6.83;2.40;;;;;;;;;;3384460;42;20625;-62
2022/10/10 01:38:49;;;;;;;6.65;2.50;;;;;;;;;;3374208;42;20552;-61
2022/10/10 01:41:32;;;;;;;7.65;2.20;;;;;;;;;;3383371;42;20516;-63
2022/10/10 01:44:03;;;;;;;6.15;2.40;;;;;;;;;;3381259;42;20091;-60
2022/10/10 01:46:34;;;;;;;5.95;2.33;;;;;;;;;;3375505;42;20508;-60
2022/10/10 01:49:06;;;;;;;6.10;2.20;;;;;;;;;;3383463;42;20095;-63
2022/10/10 01:51:49;;;;;;;5.55;2.30;;;;;;;;;;3383540;42;20103;-61
2022/10/10 01:54:41;;;;;;;6.72;2.38;;;;;;;;;;3373895;42;20099;-65
2022/10/10 01:57:23;;;;;;;5.50;2.00;;;;;;;;;;3371341;42;20497;-62
2022/10/10 02:00:07;;;;;;;5.93;2.42;;;;;;;;;;3383054;42;20518;-62
2022/10/10 02:02:59;;;;;;;5.87;2.37;;;;;;;;;;3387993;42;20566;-62
2022/10/10 02:05:47;;;;;;;8.10;2.30;;;;;;;;;;3382343;42;20675;-65
2022/10/10 02:08:31;;;;;;;6.13;2.30;;;;;;;;;;3375735;42;20529;-60
2022/10/10 02:11:05;;;;;;;6.75;2.35;;;;;;;;;;3379437;42;20082;-63
2022/10/10 02:13:43;;;;;;;6.15;2.15;;;;;;;;;;3378900;42;20146;-62
2022/10/10 02:16:17;;;;;;;5.57;2.03;;;;;;;;;;3375409;42;20099;-63
2022/10/10 02:18:48;;;;;;;6.28;2.30;;;;;;;;;;3377365;42;20565;-63
2022/10/10 02:21:19;;;;;;;6.53;2.15;;;;;;;;;;3380531;42;20589;-61
2022/10/10 02:23:52;;;;;;;6.13;2.30;;;;;;;;;;3368007;42;20099;-61
2022/10/10 02:26:23;;;;;;;8.50;2.50;;;;;;;;;;3375257;42;20489;-62
2022/10/10 02:29:16;;;;;;;5.60;2.20;;;;;;;;;;3382789;42;20102;-62
2022/10/10 02:32:10;;;;;;;6.60;2.25;;;;;;;;;;3382574;42;20135;-62
2022/10/10 02:34:47;;;;;;;8.23;2.42;;;;;;;;;;3373786;42;20113;-62
2022/10/10 02:37:18;;;;;;;6.22;2.50;;;;;;;;;;3382403;42;20113;-64
2022/10/10 02:39:52;;;;;;;5.30;2.10;;;;;;;;;;3382923;42;20087;-63
2022/10/10 02:42:23;;;;;;;5.20;2.00;;;;;;;;;;3382811;42;20093;-63
2022/10/10 02:44:55;;;;;;;5.55;2.13;;;;;;;;;;3382361;42;20086;-62
2022/10/10 02:47:26;;;;;;;6.28;2.30;;;;;;;;;;3368041;42;20176;-62
2022/10/10 02:49:58;;;;;;;8.02;2.38;;;;;;;;;;3381184;42;20094;-62
2022/10/10 02:52:29;;;;;;;6.75;2.10;;;;;;;;;;3386021;42;20106;-62
2022/10/10 02:55:00;;;;;;;5.53;2.27;;;;;;;;;;3390261;42;20098;-63
2022/10/10 02:57:31;;;;;;;5.85;1.80;;;;;;;;;;3389138;42;20099;-63
2022/10/10 03:00:04;;;;;;;5.75;1.85;;;;;;;;;;3385807;42;20095;-62
2022/10/10 03:02:35;;;;;;;6.00;2.25;;;;;;;;;;3382303;42;20086;-62
2022/10/10 03:05:07;;;;;;;6.72;2.05;;;;;;;;;;3379719;42;20176;-63
2022/10/10 03:07:38;;;;;;;6.33;2.10;;;;;;;;;;3379820;42;20103;-61
2022/10/10 03:10:09;;;;;;;5.85;2.45;;;;;;;;;;3382228;42;20095;-62
2022/10/10 03:12:40;;;;;;;8.75;2.30;;;;;;;;;;3383714;42;20094;-61
2022/10/10 03:15:11;;;;;;;5.88;2.10;;;;;;;;;;3384457;42;20132;-61
2022/10/10 03:17:43;;;;;;;5.50;2.20;;;;;;;;;;3383906;42;20138;-62
2022/10/10 03:20:14;;;;;;;5.80;2.10;;;;;;;;;;3388320;42;20091;-63
2022/10/10 03:22:45;;;;;;;7.10;2.60;;;;;;;;;;3387868;42;20094;-61
2022/10/10 03:25:17;;;;;;;6.70;2.47;;;;;;;;;;3384537;42;20102;-62
2022/10/10 03:27:48;;;;;;;5.35;2.10;;;;;;;;;;3384896;42;20565;-62
2022/10/10 03:30:19;;;;;;;6.28;2.28;;;;;;;;;;3384639;42;20099;-62
2022/10/10 03:32:50;;;;;;;5.43;1.90;;;;;;;;;;3379598;42;20103;-63
2022/10/10 03:35:22;;;;;;;5.68;2.33;;;;;;;;;;3380412;42;20582;-63
2022/10/10 03:37:53;;;;;;;6.47;2.30;;;;;;;;;;3379266;42;20462;-62
2022/10/10 03:40:24;;;;;;;5.53;2.17;;;;;;;;;;3388380;42;20105;-62
2022/10/10 03:42:56;;;;;;;6.38;2.40;;;;;;;;;;3388459;42;20504;-62
2022/10/10 03:45:27;;;;;;;6.90;2.43;;;;;;;;;;3388661;42;20145;-62
2022/10/10 03:47:59;;;;;;;8.95;2.35;;;;;;;;;;3391559;42;20158;-62
2022/10/10 03:50:30;;;;;;;5.88;2.20;;;;;;;;;;3384439;42;20169;-63
2022/10/10 03:53:02;;;;;;;6.43;2.30;;;;;;;;;;3390942;42;20161;-62
2022/10/10 03:55:33;;;;;;;10.95;2.35;;;;;;;;;;3382442;42;20595;-63
2022/10/10 03:58:04;;;;;;;6.43;2.13;;;;;;;;;;3380474;42;20182;-62
2022/10/10 04:00:35;;;;;;;5.95;2.30;;;;;;;;;;3383543;42;20105;-62
2022/10/10 04:03:07;;;;;;;6.40;2.60;;;;;;;;;;3382430;42;20114;-61
2022/10/10 04:05:38;;;;;;;6.10;2.50;;;;;;;;;;3384432;42;20141;-63
2022/10/10 04:08:09;;;;;;;6.13;2.33;;;;;;;;;;3384377;42;20110;-64
2022/10/10 04:10:40;;;;;;;6.97;2.63;;;;;;;;;;3378894;42;20186;-63
2022/10/10 04:13:12;;;;;;;6.10;2.13;;;;;;;;;;3383670;42;20147;-62
2022/10/10 04:15:43;;;;;;;7.03;2.30;;;;;;;;;;3383002;42;20134;-62
2022/10/10 04:18:14;;;;;;;5.47;2.28;;;;;;;;;;3384274;42;20087;-62
2022/10/10 04:20:45;;;;;;;6.65;2.40;;;;;;;;;;3383568;42;20111;-60
2022/10/10 04:23:17;;;;;;;6.53;2.30;;;;;;;;;;3386396;42;20138;-65
2022/10/10 04:25:51;;;;;;;6.43;2.50;;;;;;;;;;3374559;42;20105;-64
2022/10/10 04:28:22;;;;;;;6.63;2.60;;;;;;;;;;3391077;42;20105;-61
2022/10/10 04:30:55;;;;;;;6.35;2.40;;;;;;;;;;3384142;42;20485;-61
2022/10/10 04:33:26;;;;;;;9.10;2.55;;;;;;;;;;3384018;42;20094;-62
2022/10/10 04:35:57;;;;;;;6.50;2.40;;;;;;;;;;3381723;42;20565;-62
2022/10/10 04:38:29;;;;;;;8.80;2.38;;;;;;;;;;3384223;42;20512;-64
2022/10/10 04:41:00;;;;;;;7.82;2.60;;;;;;;;;;3390046;42;20093;-62
2022/10/10 04:43:31;;;;;;;5.78;2.60;;;;;;;;;;3384204;42;20171;-64
2022/10/10 04:46:02;;;;;;;8.35;2.70;;;;;;;;;;3384072;42;20147;-62
2022/10/10 04:48:34;;;;;;;7.20;2.57;;;;;;;;;;3383894;42;20162;-60
2022/10/10 04:51:05;;;;;;;6.50;2.50;;;;;;;;;;3384307;42;20106;-61
2022/10/10 04:53:36;;;;;;;6.28;2.40;;;;;;;;;;3379953;42;20102;-64
2022/10/10 04:56:07;;;;;;;6.60;2.40;;;;;;;;;;3383485;42;20101;-61
2022/10/10 04:58:38;;;;;;;6.32;2.50;;;;;;;;;;3383181;42;20611;-64
2022/10/10 05:01:10;;;;;;;7.97;2.40;;;;;;;;;;3382608;42;20105;-62
2022/10/10 05:03:41;;;;;;;6.03;2.40;;;;;;;;;;3377756;42;20141;-63
2022/10/10 05:06:12;;;;;;;6.95;2.53;;;;;;;;;;3381858;42;20160;-63
2022/10/10 05:08:43;;;;;;;6.47;2.40;;;;;;;;;;3382658;42;20178;-62
2022/10/10 05:11:14;;;;;;;7.25;2.60;;;;;;;;;;3379790;42;20086;-63
2022/10/10 05:13:46;;;;;;;7.00;2.70;;;;;;;;;;3380043;42;20095;-64
2022/10/10 05:16:17;;;;;;;8.52;2.42;;;;;;;;;;3378296;42;20553;-63
2022/10/10 05:18:48;;;;;;;6.03;2.30;;;;;;;;;;3377208;42;20091;-62
2022/10/10 05:21:19;;;;;;;6.75;2.55;;;;;;;;;;3381841;42;20142;-65
2022/10/10 05:23:50;;;;;;;6.80;2.17;;;;;;;;;;3380059;42;20135;-64
2022/10/10 05:26:21;;;;;;;5.73;2.33;;;;;;;;;;3378817;42;20090;-65
2022/10/10 05:28:53;;;;;;;7.88;2.30;;;;;;;;;;3380054;42;20638;-62
2022/10/10 05:31:24;;;;;;;6.80;2.40;;;;;;;;;;3385341;42;20093;-63
2022/10/10 05:33:56;;;;;;;7.75;2.22;;;;;;;;;;3373952;42;20508;-63
2022/10/10 05:36:27;;;;;;;7.40;2.40;;;;;;;;;;3382992;42;20091;-62
2022/10/10 05:39:00;;;;;;;8.57;2.50;;;;;;;;;;3383262;42;20173;-63
2022/10/10 05:41:31;;;;;;;9.38;2.80;;;;;;;;;;3380919;42;20138;-65
2022/10/10 05:44:02;;;;;;;9.90;3.88;;;;;;;;;;3379270;42;20095;-63
2022/10/10 05:46:33;;;;;;;6.28;2.40;;;;;;;;;;3374504;42;20095;-64
2022/10/10 05:49:04;;;;;;;7.72;2.60;;;;;;;;;;3385435;42;20138;-61
2022/10/10 05:51:36;;;;;;;6.00;2.43;;;;;;;;;;3379664;42;20095;-65
2022/10/10 05:54:07;;;;;;;7.55;2.60;;;;;;;;;;3382221;42;20102;-62
2022/10/10 05:56:38;;;;;;;5.93;2.42;;;;;;;;;;3383848;42;20102;-63
2022/10/10 05:59:10;;;;;;;8.98;2.88;;;;;;;;;;3378898;42;20166;-63
2022/10/10 06:01:41;;;;;;;6.35;2.28;;;;;;;;;;3372326;42;20173;-62
2022/10/10 06:04:12;;;;;;;7.20;2.27;;;;;;;;;;3381362;42;20814;-64
2022/10/10 06:06:43;;;;;;;8.30;2.47;;;;;;;;;;3383407;42;20110;-60
2022/10/10 06:09:14;;;;;;;6.65;2.80;;;;;;;;;;3379445;42;20083;-65
2022/10/10 06:11:46;;;;;;;6.95;2.58;;;;;;;;;;3383408;42;20174;-64
2022/10/10 06:14:17;;;;;;;6.93;2.80;;;;;;;;;;3389745;42;20214;-64
2022/10/10 06:16:48;;;;;;;7.37;2.47;;;;;;;;;;3380378;42;20098;-61
2022/10/10 06:19:20;;;;;;;11.65;3.15;;;;;;;;;;3380202;42;20106;-65
2022/10/10 06:21:51;;;;;;;11.32;2.80;;;;;;;;;;3375782;42;20143;-64
2022/10/10 06:24:22;;;;;;;6.43;2.78;;;;;;;;;;3376609;42;20226;-64
2022/10/10 06:26:53;;;;;;;8.77;3.00;;;;;;;;;;3381469;42;20609;-62
2022/10/10 06:29:25;;;;;;;7.30;2.60;;;;;;;;;;3380468;42;20102;-62
2022/10/10 06:31:56;;;;;;;9.27;2.70;;;;;;;;;;3377796;42;20099;-60
2022/10/10 06:34:27;;;;;;;5.53;2.40;;;;;;;;;;3380666;42;20168;-65
2022/10/10 06:36:58;;;;;;;6.97;2.72;;;;;;;;;;3380944;42;20103;-65
2022/10/10 06:39:30;;;;;;;6.68;2.83;;;;;;;;;;3388736;42;20095;-63
2022/10/10 06:42:01;;;;;;;8.37;2.73;;;;;;;;;;3379474;42;20853;-64
2022/10/10 06:44:32;;;;;;;6.72;2.38;;;;;;;;;;3381575;42;20094;-64
2022/10/10 06:47:03;;;;;;;7.03;2.33;;;;;;;;;;3381443;42;20135;-63
2022/10/10 06:49:35;;;;;;;6.97;2.50;;;;;;;;;;3382673;42;20595;-62
2022/10/10 06:52:06;;;;;;;7.22;2.83;;;;;;;;;;3379024;42;20115;-64
2022/10/10 06:54:37;;;;;;;5.87;2.30;;;;;;;;;;3384700;42;20097;-63
2022/10/10 06:57:08;;;;;;;6.63;2.55;;;;;;;;;;3383277;42;20153;-64
2022/10/10 06:59:39;;;;;;;7.03;2.63;;;;;;;;;;3382316;42;20587;-65
2022/10/10 07:02:12;;;;;;;8.52;2.65;;;;;;;;;;3382923;42;20129;-63
2022/10/10 07:04:43;;;;;;;8.27;2.70;;;;;;;;;;3377329;42;20091;-63
2022/10/10 07:07:14;;;;;;;6.23;2.80;;;;;;;;;;3379316;42;20110;-64
2022/10/10 07:09:45;;;;;;;9.05;2.78;;;;;;;;;;3375585;42;20103;-63
2022/10/10 07:12:16;;;;;;;8.20;2.70;;;;;;;;;;3384466;42;20110;-63
2022/10/10 07:14:48;;;;;;;9.38;2.60;;;;;;;;;;3384979;42;20179;-62
2022/10/10 07:17:19;;;;;;;6.68;2.70;;;;;;;;;;3385340;42;20098;-63
2022/10/10 07:19:50;;;;;;;7.40;2.60;;;;;;;;;;3386469;42;20165;-63
2022/10/10 07:22:21;;;;;;;7.68;2.60;;;;;;;;;;3386503;42;20115;-64
2022/10/10 07:24:53;;;;;;;6.07;2.30;;;;;;;;;;3384692;42;20172;-64
2022/10/10 07:27:24;;;;;;;13.68;3.08;;;;;;;;;;3384442;42;20095;-62
2022/10/10 07:29:55;;;;;;;9.07;2.60;;;;;;;;;;3382527;42;20106;-62
2022/10/10 07:32:26;;;;;;;5.67;2.37;;;;;;;;;;3391997;42;20559;-68
2022/10/10 07:34:57;;;;;;;6.95;2.70;;;;;;;;;;3385962;42;20466;-66
2022/10/10 07:37:28;;;;;;;6.95;2.78;;;;;;;;;;3381637;42;20091;-64
2022/10/10 07:40:00;;;;;;;8.35;2.72;;;;;;;;;;3388013;42;20090;-65
2022/10/10 07:42:31;;;;;;;7.90;2.72;;;;;;;;;;3384222;42;20099;-64
2022/10/10 07:45:03;;;;;;;9.77;2.77;;;;;;;;;;3388221;42;20098;-64
2022/10/10 07:47:34;;;;;;;8.60;2.78;;;;;;;;;;3384053;42;20573;-63
2022/10/10 07:50:06;;;;;;;10.88;2.50;;;;;;;;;;3384083;42;20099;-63
2022/10/10 07:52:38;;;;;;;6.57;2.78;;;;;;;;;;3384161;42;20093;-64
2022/10/10 07:55:10;;;;;;;6.47;2.60;;;;;;;;;;3384851;42;20103;-62
2022/10/10 07:57:41;;;;;;;8.60;2.40;;;;;;;;;;3383854;42;20102;-64
2022/10/10 08:00:13;;;;;;;6.10;2.08;;;;;;;;;;3384408;42;20122;-63
2022/10/10 08:02:44;;;;;;;5.95;2.05;;;;;;;;;;3389001;42;20087;-63
2022/10/10 08:05:15;;;;;;;7.45;2.17;;;;;;;;;;3387540;42;20099;-63
2022/10/10 08:07:46;;;;;;;7.10;1.98;;;;;;;;;;3384600;42;20097;-63
2022/10/10 08:10:17;;;;;;;17.53;2.50;;;;;;;;;;3391725;42;20094;-62
2022/10/10 08:12:49;;;;;;;6.90;2.30;;;;;;;;;;3384305;42;20086;-64
2022/10/10 08:15:20;;;;;;;5.85;2.40;;;;;;;;;;3384296;42;20179;-64
2022/10/10 08:17:51;;;;;;;5.50;2.30;;;;;;;;;;3384373;42;20103;-64
2022/10/10 08:20:22;;;;;;;7.22;2.40;;;;;;;;;;3384463;42;20193;-64
2022/10/10 08:22:53;;;;;;;7.83;2.80;;;;;;;;;;3384605;42;20099;-64
2022/10/10 08:25:25;;;;;;;9.43;2.55;;;;;;;;;;3386069;42;20095;-65
2022/10/10 08:27:56;;;;;;;5.97;2.40;;;;;;;;;;3377322;42;20122;-64
2022/10/10 08:30:27;;;;;;;7.43;2.30;;;;;;;;;;3384080;42;20168;-65
2022/10/10 08:32:58;;;;;;;7.15;2.33;;;;;;;;;;3386400;42;20576;-62
2022/10/10 08:35:29;;;;;;;9.00;2.43;;;;;;;;;;3387822;42;20500;-64
2022/10/10 08:38:00;;;;;;;6.78;2.58;;;;;;;;;;3387892;42;20571;-65
2022/10/10 08:40:32;;;;;;;6.05;2.40;;;;;;;;;;3389543;42;20103;-64
2022/10/10 08:43:03;;;;;;;6.47;2.08;;;;;;;;;;3391456;42;20184;-62
2022/10/10 08:45:34;;;;;;;5.78;2.30;;;;;;;;;;3385678;42;20094;-64
2022/10/10 08:48:14;;;;;;;7.20;2.90;;;;;;;;;;3369336;42;20189;-66
2022/10/10 08:50:54;;;;;;;7.22;2.70;;;;;;;;;;3378551;42;20126;-64
2022/10/10 08:53:41;;;;;;;6.88;2.72;;;;;;;;;;3389167;42;20101;-63
2022/10/10 08:56:15;;;;;;;5.95;2.60;;;;;;;;;;3370086;42;20091;-63
2022/10/10 08:58:48;;;;;;;6.57;2.13;;;;;;;;;;3384210;42;20172;-64
2022/10/10 09:01:22;;;;;;;7.20;2.40;;;;;;;;;;3372612;42;20133;-65
2022/10/10 09:03:54;;;;;;;7.25;2.63;;;;;;;;;;3387606;42;20102;-62
2022/10/10 09:06:52;;;;;;;6.72;2.47;;;;;;;;;;3383869;42;20159;-65
2022/10/10 09:09:38;;;;;;;9.00;2.63;;;;;;;;;;3384019;42;20110;-63
2022/10/10 09:12:28;;;;;;;6.55;2.40;;;;;;;;;;3384584;42;20102;-63
2022/10/10 09:15:13;;;;;;;6.90;2.10;;;;;;;;;;3382683;42;20168;-62
2022/10/10 09:17:55;;;;;;;7.03;2.13;;;;;;;;;;3388657;42;20183;-62
2022/10/10 09:20:42;;;;;;;7.40;2.20;;;;;;;;;;3377789;42;20154;-62
2022/10/10 09:23:16;;;;;;;5.85;2.30;;;;;;;;;;3382591;42;20584;-63
2022/10/10 09:25:52;;;;;;;6.28;2.30;;;;;;;;;;3384334;42;20094;-63
2022/10/10 09:28:29;;;;;;;11.73;2.20;;;;;;;;;;3390906;42;20175;-61
2022/10/10 09:31:00;;;;;;;5.45;2.22;;;;;;;;;;3382789;42;20087;-64
2022/10/10 09:33:40;;;;;;;8.02;2.40;;;;;;;;;;3383760;42;20485;-62
2022/10/10 09:36:13;;;;;;;6.25;2.22;;;;;;;;;;3376868;42;20138;-65
2022/10/10 09:39:00;;;;;;;7.18;2.35;;;;;;;;;;3374208;42;20101;-63
2022/10/10 09:41:40;;;;;;;6.77;2.30;;;;;;;;;;3376295;42;20117;-65
2022/10/10 09:44:12;;;;;;;6.50;2.20;;;;;;;;;;3383342;42;20114;-62
2022/10/10 09:46:43;;;;;;;5.55;2.00;;;;;;;;;;3363625;42;20103;-63
2022/10/10 09:49:15;;;;;;;5.40;2.10;;;;;;;;;;3376823;42;20087;-61
2022/10/10 09:51:47;;;;;;;6.53;2.10;;;;;;;;;;3374094;42;20091;-64
2022/10/10 09:54:18;;;;;;;6.97;2.40;;;;;;;;;;3379880;42;20146;-66
2022/10/10 09:56:55;;;;;;;6.95;2.40;;;;;;;;;;3381437;42;20121;-64
2022/10/10 09:59:38;;;;;;;6.15;2.50;;;;;;;;;;3373053;42;20177;-63
2022/10/10 10:02:28;;;;;;;5.80;2.45;;;;;;;;;;3374628;42;20098;-63
2022/10/10 10:04:59;;;;;;;9.52;2.38;;;;;;;;;;3372584;42;20144;-63
2022/10/10 10:07:32;;;;;;;6.73;1.80;;;;;;;;;;3387565;42;20109;-64
2022/10/10 10:10:17;;;;;;;6.63;2.15;;;;;;;;;;3379467;42;20188;-63
2022/10/10 10:12:49;;;;;;;6.30;2.08;;;;;;;;;;3374843;42;20105;-63
2022/10/10 10:15:25;;;;;;;6.47;2.30;;;;;;;;;;3386222;42;20083;-64
2022/10/10 10:18:23;;;;;;;7.82;2.28;;;;;;;;;;3378178;42;20087;-62
2022/10/10 10:21:01;;;;;;;5.60;2.20;;;;;;;;;;3388872;42;20087;-66
2022/10/10 10:23:33;;;;;;;5.38;2.13;;;;;;;;;;3382034;42;20547;-64
2022/10/10 10:26:08;;;;;;;6.30;2.15;;;;;;;;;;3383840;42;20578;-64
2022/10/10 10:28:39;;;;;;;7.18;2.00;;;;;;;;;;3378055;42;20503;-64
2022/10/10 10:31:36;;;;;;;6.22;2.20;;;;;;;;;;3380966;42;20512;-64
2022/10/10 10:34:34;;;;;;;7.20;2.40;;;;;;;;;;3384942;42;20094;-65
2022/10/10 10:37:21;;;;;;;6.68;2.13;;;;;;;;;;3384679;42;20094;-63
2022/10/10 10:40:15;;;;;;;5.80;2.20;;;;;;;;;;3386725;42;20175;-60
2022/10/10 10:42:50;;;;;;;6.82;2.30;;;;;;;;;;3380648;42;20106;-63
2022/10/10 10:45:59;;;;;;;5.47;2.13;;;;;;;;;;3380615;42;20166;-63
2022/10/10 10:48:40;;;;;;;7.33;2.13;;;;;;;;;;3385655;42;20086;-63
2022/10/10 10:51:25;;;;;;;7.28;2.25;;;;;;;;;;3385579;42;20101;-63
2022/10/10 10:54:20;;;;;;;6.45;2.05;;;;;;;;;;3385479;42;20558;-63
2022/10/10 10:57:13;;;;;;;5.75;2.00;;;;;;;;;;3381592;42;20533;-64
2022/10/10 11:00:00;;;;;;;6.45;2.40;;;;;;;;;;3385499;42;20176;-61
2022/10/10 11:02:42;;;;;;;7.20;2.30;;;;;;;;;;3385635;42;20086;-63
2022/10/10 11:05:28;;;;;;;8.10;2.33;;;;;;;;;;3379750;42;20095;-65
2022/10/10 11:08:18;;;;;;;6.47;2.30;;;;;;;;;;3385893;42;20087;-61
2022/10/10 11:10:55;;;;;;;7.35;2.55;;;;;;;;;;3381221;42;20544;-62
2022/10/10 11:13:29;;;;;;;6.30;2.50;;;;;;;;;;3383583;42;20557;-63
2022/10/10 11:16:22;;;;;;;6.63;2.30;;;;;;;;;;3381743;42;20102;-62
2022/10/10 11:19:24;;;;;;;6.25;2.10;;;;;;;;;;3381943;42;20086;-64
2022/10/10 11:21:59;;;;;;;7.80;2.30;;;;;;;;;;3388882;42;20091;-63
2022/10/10 11:24:54;;;;;;;5.78;2.13;;;;;;;;;;3376987;42;20106;-62
2022/10/10 11:27:35;;;;;;;5.80;2.22;;;;;;;;;;3384700;42;20100;-64
2022/10/10 11:30:25;;;;;;;6.23;2.57;;;;;;;;;;3382986;42;20596;-62
2022/10/10 11:33:09;;;;;;;7.75;2.58;;;;;;;;;;3368169;42;20102;-63
2022/10/10 11:35:46;;;;;;;6.13;2.47;;;;;;;;;;3380994;42;20249;-62
2022/10/10 11:38:34;;;;;;;7.47;2.40;;;;;;;;;;3388057;42;20183;-66
2022/10/10 11:41:11;;;;;;;6.78;2.50;;;;;;;;;;3376726;42;20099;-62
2022/10/10 11:43:47;;;;;;;6.87;2.40;;;;;;;;;;3373532;42;20234;-62
2022/10/10 11:46:30;;;;;;;7.55;2.65;;;;;;;;;;3382680;42;20091;-63
2022/10/10 11:49:10;;;;;;;9.35;2.80;;;;;;;;;;3380381;42;20549;-64
2022/10/10 11:51:57;;;;;;;8.27;2.60;;;;;;;;;;3382819;42;20549;-62
2022/10/10 11:54:43;;;;;;;8.10;2.75;;;;;;;;;;3381100;42;20105;-63
2022/10/10 11:57:20;;;;;;;8.83;2.57;;;;;;;;;;3382943;42;20634;-64
2022/10/10 11:59:54;;;;;;;9.15;2.67;;;;;;;;;;3386213;42;20791;-64
2022/10/10 12:02:33;;;;;;;9.52;2.67;;;;;;;;;;3376378;42;20101;-63
2022/10/10 12:05:05;;;;;;;6.82;2.70;;;;;;;;;;3375404;42;20189;-63
2022/10/10 12:07:43;;;;;;;6.72;2.90;;;;;;;;;;3381012;42;20091;-63
2022/10/10 12:10:36;;;;;;;11.23;3.20;;;;;;;;;;3380982;42;20099;-64
2022/10/10 12:13:21;;;;;;;9.90;2.60;;;;;;;;;;3374522;42;20103;-63
2022/10/10 12:15:53;;;;;;;7.03;2.67;;;;;;;;;;3374554;42;20167;-65
2022/10/10 12:18:59;;;;;;;8.82;2.60;;;;;;;;;;3368768;42;20504;-65
2022/10/10 12:21:31;;;;;;;8.13;2.80;;;;;;;;;;3369857;42;20086;-63
2022/10/10 12:24:12;;;;;;;11.83;3.00;;;;;;;;;;3382730;42;20091;-64
2022/10/10 12:26:55;;;;;;;8.25;2.50;;;;;;;;;;3382722;42;20095;-63
2022/10/10 12:29:39;;;;;;;7.25;2.72;;;;;;;;;;3383752;42;20692;-65
2022/10/10 12:32:13;;;;;;;8.95;2.70;;;;;;;;;;3384723;42;20244;-66
2022/10/10 12:34:47;;;;;;;6.47;2.60;;;;;;;;;;3383749;42;20091;-61
2022/10/10 12:37:25;;;;;;;9.67;2.70;;;;;;;;;;3380564;42;20234;-62
2022/10/10 12:40:06;;;;;;;6.95;2.45;;;;;;;;;;3383915;42;20091;-64
2022/10/10 12:42:47;;;;;;;8.15;2.75;;;;;;;;;;3383364;42;20194;-64
2022/10/10 12:45:30;;;;;;;11.00;2.72;;;;;;;;;;3379657;42;20473;-62
2022/10/10 12:48:11;;;;;;;10.35;2.80;;;;;;;;;;3382492;42;20114;-64
2022/10/10 12:50:42;;;;;;;7.93;2.90;;;;;;;;;;3367413;42;20091;-63
2022/10/10 12:53:15;;;;;;;10.13;2.47;;;;;;;;;;3386814;42;20171;-64
2022/10/10 12:55:48;;;;;;;7.15;2.60;;;;;;;;;;3388461;42;20146;-64
2022/10/10 12:58:32;;;;;;;6.85;2.63;;;;;;;;;;3366812;42;20095;-65
2022/10/10 13:01:05;;;;;;;7.28;2.42;;;;;;;;;;3373258;42;20095;-65
2022/10/10 13:03:46;;;;;;;11.57;2.60;;;;;;;;;;3373027;42;20087;-62
2022/10/10 13:06:39;;;;;;;7.82;2.97;;;;;;;;;;3382251;42;20095;-65
2022/10/10 13:09:22;;;;;;;7.97;2.50;;;;;;;;;;3371176;42;20542;-65
2022/10/10 13:12:01;;;;;;;6.90;2.40;;;;;;;;;;3367950;42;20512;-64
2022/10/10 13:14:42;;;;;;;6.30;2.50;;;;;;;;;;3370984;42;20608;-63
2022/10/10 13:17:22;;;;;;;11.17;2.60;;;;;;;;;;3381971;42;20086;-63
2022/10/10 13:19:54;;;;;;;7.07;2.40;;;;;;;;;;3382532;42;20098;-62
2022/10/10 13:22:26;;;;;;;6.90;2.90;;;;;;;;;;3374987;42;20097;-66
2022/10/10 13:24:58;;;;;;;6.47;2.38;;;;;;;;;;3382388;42;20098;-62
2022/10/10 13:27:31;;;;;;;6.40;2.72;;;;;;;;;;3381708;42;20098;-63
2022/10/10 13:30:03;;;;;;;6.73;2.80;;;;;;;;;;3375262;42;20176;-61
2022/10/10 13:32:34;;;;;;;6.47;2.47;;;;;;;;;;3382002;42;20249;-62
2022/10/10 13:35:16;;;;;;;9.98;2.97;;;;;;;;;;3382451;42;20173;-63
2022/10/10 13:37:56;;;;;;;9.00;3.08;;;;;;;;;;3379588;42;20102;-62
2022/10/10 13:40:27;;;;;;;9.13;3.30;;;;;;;;;;3382471;42;20595;-62
2022/10/10 13:42:58;;;;;;;8.40;3.00;;;;;;;;;;3366219;42;20083;-62
2022/10/10 13:45:37;;;;;;;9.75;3.50;;;;;;;;;;3381980;42;20094;-62
2022/10/10 13:48:14;;;;;;;12.05;3.47;;;;;;;;;;3382129;42;20689;-64
2022/10/10 13:50:49;;;;;;;10.30;3.38;;;;;;;;;;3382237;42;20090;-63
2022/10/10 13:53:30;;;;;;;8.10;3.00;;;;;;;;;;3382089;42;20091;-63
2022/10/10 13:56:20;;;;;;;11.67;3.40;;;;;;;;;;3383450;42;20189;-64
2022/10/10 13:58:54;;;;;;;7.22;3.05;;;;;;;;;;3382249;42;20101;-64
2022/10/10 14:01:36;;;;;;;11.70;3.40;;;;;;;;;;3383375;42;20091;-63
2022/10/10 14:04:35;;;;;;;10.25;3.30;;;;;;;;;;3382107;42;20106;-63
2022/10/10 14:07:09;;;;;;;8.50;3.40;;;;;;;;;;3381265;42;20091;-62
2022/10/10 14:10:04;;;;;;;11.23;3.93;;;;;;;;;;3381487;42;20126;-61
2022/10/10 14:12:47;;;;;;;10.68;3.60;;;;;;;;;;3372713;42;20105;-62
2022/10/10 14:15:45;;;;;;;11.57;3.88;;;;;;;;;;3377800;42;20569;-63
2022/10/10 14:18:24;;;;;;;12.45;4.55;;;;;;;;;;3385103;42;20173;-63
2022/10/10 14:20:55;;;;;;;10.05;4.25;;;;;;;;;;3382230;42;20511;-63
2022/10/10 14:23:26;;;;;;;9.23;4.00;;;;;;;;;;3382107;42;20134;-62
2022/10/10 14:25:57;;;;;;;10.07;3.60;;;;;;;;;;3388567;42;20090;-62
2022/10/10 14:28:30;;;;;;;9.02;3.65;;;;;;;;;;3381754;42;20099;-63
2022/10/10 14:31:02;;;;;;;10.50;3.60;;;;;;;;;;3383174;42;20150;-65
2022/10/10 14:33:34;;;;;;;10.75;4.00;;;;;;;;;;3379268;42;20580;-62
2022/10/10 14:36:05;;;;;;;11.17;3.50;;;;;;;;;;3378637;42;20769;-64
2022/10/10 14:38:36;;;;;;;8.32;3.50;;;;;;;;;;3379917;42;20079;-65
2022/10/10 14:41:09;;;;;;;9.20;3.35;;;;;;;;;;3376068;42;20096;-63
2022/10/10 14:43:40;;;;;;;7.80;3.58;;;;;;;;;;3378227;42;20114;-61
2022/10/10 14:46:16;;;;;;;8.30;3.20;;;;;;;;;;3376741;42;20153;-63
2022/10/10 14:48:47;;;;;;;8.27;3.20;;;;;;;;;;3377714;42;20083;-65
2022/10/10 14:51:18;;;;;;;9.93;3.08;;;;;;;;;;3374453;42;20859;-65
2022/10/10 14:53:49;;;;;;;8.50;2.75;;;;;;;;;;3380939;42;20565;-60
2022/10/10 14:56:20;;;;;;;6.47;2.60;;;;;;;;;;3378401;42;20091;-62
2022/10/10 14:58:52;;;;;;;7.32;2.70;;;;;;;;;;3387407;42;20091;-67
2022/10/10 15:01:23;;;;;;;7.63;2.67;;;;;;;;;;3377535;42;20095;-64
2022/10/10 15:03:54;;;;;;;9.35;2.67;;;;;;;;;;3377673;42;20105;-63
2022/10/10 15:06:25;;;;;;;8.45;3.33;;;;;;;;;;3380838;42;20126;-63
2022/10/10 15:08:56;;;;;;;6.80;2.78;;;;;;;;;;3377693;42;20091;-62
2022/10/10 15:11:27;;;;;;;8.48;2.80;;;;;;;;;;3378866;42;20101;-63
2022/10/10 15:13:59;;;;;;;10.17;2.80;;;;;;;;;;3381250;42;20105;-64
2022/10/10 15:16:30;;;;;;;9.57;2.70;;;;;;;;;;3381613;42;20182;-63
2022/10/10 15:19:01;;;;;;;7.32;2.60;;;;;;;;;;3379336;42;20160;-63
2022/10/10 15:21:32;;;;;;;6.60;2.67;;;;;;;;;;3378666;42;20102;-62
2022/10/10 15:24:04;;;;;;;8.43;2.88;;;;;;;;;;3382801;42;20144;-63
2022/10/10 15:26:35;;;;;;;8.17;2.80;;;;;;;;;;3381802;42;20079;-64
2022/10/10 15:29:06;;;;;;;7.63;2.88;;;;;;;;;;3387477;42;20154;-62
2022/10/10 15:31:37;;;;;;;7.32;2.80;;;;;;;;;;3384154;42;20091;-64
2022/10/10 15:34:08;;;;;;;6.88;2.72;;;;;;;;;;3382324;42;20082;-60